createdAt,value
2023-03-29T00:00:06.233Z,39.5
2023-03-29T00:01:07.272Z,40
2023-03-29T00:02:08.233Z,39.7
2023-03-29T00:03:09.373Z,39.7
2023-03-29T00:04:10.618Z,39.7
2023-03-29T00:05:11.250Z,39.8
2023-03-29T00:06:12.190Z,40
2023-03-29T00:07:16.262Z,40.6
2023-03-29T00:08:17.851Z,41.3
2023-03-29T00:09:19.440Z,41.7
2023-03-29T00:10:20.232Z,41.8
2023-03-29T00:11:21.189Z,41.5
2023-03-29T00:12:22.142Z,41.3
2023-03-29T00:13:23.289Z,41.1
2023-03-29T00:14:24.319Z,41.2
2023-03-29T00:15:25.323Z,41.1
2023-03-29T00:16:26.269Z,41.6
2023-03-29T00:17:27.241Z,41.9
2023-03-29T00:18:28.307Z,42
2023-03-29T00:19:29.275Z,42
2023-03-29T00:20:30.271Z,42.1
2023-03-29T00:21:31.279Z,42
2023-03-29T00:22:32.277Z,41.8
2023-03-29T00:23:33.231Z,41.2
2023-03-29T00:24:34.384Z,41.6
2023-03-29T00:25:35.408Z,42.1
2023-03-29T00:26:36.240Z,42.3
2023-03-29T00:27:37.269Z,42.4
2023-03-29T00:28:38.229Z,42.4
2023-03-29T00:29:39.300Z,42.2
2023-03-29T00:30:40.225Z,41.9
2023-03-29T00:31:41.299Z,41.7
2023-03-29T00:32:42.274Z,42.2
2023-03-29T00:33:43.317Z,42.7
2023-03-29T00:34:44.331Z,43
2023-03-29T00:35:45.487Z,43.2
2023-03-29T00:36:46.213Z,43.3
2023-03-29T00:37:47.127Z,43.6
2023-03-29T00:38:48.186Z,43.8
2023-03-29T00:39:49.417Z,44
2023-03-29T00:40:50.446Z,44
2023-03-29T00:41:51.320Z,44
2023-03-29T00:42:52.199Z,44
2023-03-29T00:43:53.332Z,44
2023-03-29T00:44:54.307Z,44
2023-03-29T00:45:55.138Z,44
2023-03-29T00:46:56.230Z,44.1
2023-03-29T00:47:57.547Z,44
2023-03-29T00:48:58.332Z,43.7
2023-03-29T00:49:59.412Z,43.3
2023-03-29T00:51:00.507Z,43
2023-03-29T00:52:01.271Z,42.8
2023-03-29T00:53:02.251Z,42.7
2023-03-29T00:54:03.271Z,42.8
2023-03-29T00:55:04.294Z,43.2
2023-03-29T00:56:05.196Z,43.6
2023-03-29T00:57:06.268Z,44
2023-03-29T00:58:07.292Z,44.2
2023-03-29T00:59:08.279Z,44
2023-03-29T01:00:09.274Z,44.1
2023-03-29T01:01:10.258Z,44.2
2023-03-29T01:02:11.292Z,44.4
2023-03-29T01:03:12.291Z,44.5
2023-03-29T01:04:13.413Z,44.4
2023-03-29T01:05:14.260Z,44.4
2023-03-29T01:06:15.212Z,44.2
2023-03-29T01:07:16.262Z,44.1
2023-03-29T01:08:17.275Z,44.2
2023-03-29T01:09:18.294Z,44.2
2023-03-29T01:10:19.367Z,44.2
2023-03-29T01:11:20.494Z,43.9
2023-03-29T01:12:21.401Z,44.1
2023-03-29T01:13:22.364Z,43.9
2023-03-29T01:14:23.415Z,44.3
2023-03-29T01:15:24.388Z,44.4
2023-03-29T01:16:25.408Z,44
2023-03-29T01:17:26.489Z,44.4
2023-03-29T01:18:27.336Z,44.4
2023-03-29T01:19:28.475Z,44.4
2023-03-29T01:20:29.435Z,44.5
2023-03-29T01:21:30.445Z,44.6
2023-03-29T01:22:31.395Z,44.8
2023-03-29T01:23:32.395Z,44.8
2023-03-29T01:24:33.277Z,45
2023-03-29T01:25:34.210Z,45.2
2023-03-29T01:26:35.355Z,45.5
2023-03-29T01:27:36.410Z,45.6
2023-03-29T01:28:37.228Z,45.7
2023-03-29T01:29:38.259Z,45.6
2023-03-29T01:30:39.237Z,45.5
2023-03-29T01:31:40.316Z,45.8
2023-03-29T01:32:41.319Z,45.9
2023-03-29T01:33:42.218Z,46.1
2023-03-29T01:34:43.203Z,46.3
2023-03-29T01:35:44.244Z,46.1
2023-03-29T01:36:45.295Z,46.1
2023-03-29T01:37:46.278Z,45.9
2023-03-29T01:38:47.216Z,45.8
2023-03-29T01:39:48.218Z,45.8
2023-03-29T01:40:49.246Z,45.8
2023-03-29T01:41:50.341Z,45.8
2023-03-29T01:42:51.187Z,45.9
2023-03-29T01:43:52.294Z,46
2023-03-29T01:44:53.215Z,46.2
2023-03-29T01:45:54.299Z,46.4
2023-03-29T01:46:55.215Z,46.8
2023-03-29T01:47:56.262Z,46.8
2023-03-29T01:48:57.353Z,46.7
2023-03-29T01:49:58.214Z,46.5
2023-03-29T01:50:59.302Z,46.4
2023-03-29T01:52:00.277Z,46.4
2023-03-29T01:53:01.273Z,46.4
2023-03-29T01:54:02.411Z,46.2
2023-03-29T01:55:03.197Z,45.9
2023-03-29T01:56:04.248Z,45.6
2023-03-29T01:57:05.326Z,45.3
2023-03-29T01:58:06.275Z,45.5
2023-03-29T01:59:07.317Z,45.7
2023-03-29T02:00:08.303Z,45.9
2023-03-29T02:01:09.248Z,46
2023-03-29T02:02:10.251Z,46.1
2023-03-29T02:03:11.371Z,46.2
2023-03-29T02:04:12.343Z,46.5
2023-03-29T02:05:13.273Z,46.7
2023-03-29T02:06:14.274Z,46.7
2023-03-29T02:07:15.383Z,46.7
2023-03-29T02:08:16.297Z,46.6
2023-03-29T02:09:17.233Z,46.4
2023-03-29T02:10:18.448Z,45.9
2023-03-29T02:11:19.421Z,45.8
2023-03-29T02:12:20.273Z,45.8
2023-03-29T02:13:21.273Z,45.7
2023-03-29T02:14:22.240Z,45.6
2023-03-29T02:15:23.339Z,45.5
2023-03-29T02:16:24.298Z,45.8
2023-03-29T02:17:25.348Z,45.9
2023-03-29T02:18:26.189Z,45.9
2023-03-29T02:19:27.352Z,46.4
2023-03-29T02:20:28.393Z,46.3
2023-03-29T02:21:29.395Z,46.3
2023-03-29T02:22:30.352Z,46.3
2023-03-29T02:23:31.313Z,46.2
2023-03-29T02:24:32.252Z,46.1
2023-03-29T02:25:33.250Z,46.1
2023-03-29T02:26:34.245Z,46
2023-03-29T02:27:35.373Z,46.2
2023-03-29T02:28:36.297Z,46.1
2023-03-29T02:29:37.340Z,45.6
2023-03-29T02:30:38.274Z,46
2023-03-29T02:31:39.350Z,46.5
2023-03-29T02:32:40.413Z,46.7
2023-03-29T02:33:41.253Z,47
2023-03-29T02:34:42.360Z,47.2
2023-03-29T02:35:43.286Z,47.4
2023-03-29T02:36:44.235Z,47.5
2023-03-29T02:37:45.993Z,47.6
2023-03-29T02:38:47.381Z,47.4
2023-03-29T02:39:48.273Z,47.3
2023-03-29T02:40:49.313Z,47
2023-03-29T02:41:50.249Z,47
2023-03-29T02:42:51.292Z,47.1
2023-03-29T02:43:52.274Z,47
2023-03-29T02:44:53.261Z,47
2023-03-29T02:45:54.254Z,47
2023-03-29T02:46:55.281Z,47.1
2023-03-29T02:47:56.251Z,47.2
2023-03-29T02:48:57.437Z,47.4
2023-03-29T02:49:58.395Z,47.3
2023-03-29T02:50:59.584Z,47.3
2023-03-29T02:52:00.259Z,47.2
2023-03-29T02:53:01.236Z,47.3
2023-03-29T02:54:02.257Z,47.4
2023-03-29T02:55:03.351Z,47.5
2023-03-29T02:56:04.253Z,47.5
2023-03-29T02:57:05.484Z,47
2023-03-29T02:58:06.345Z,47.4
2023-03-29T02:59:07.277Z,47.6
2023-03-29T03:00:08.494Z,47.4
2023-03-29T03:01:09.337Z,47.1
2023-03-29T03:02:10.288Z,46.9
2023-03-29T03:03:11.540Z,46.6
2023-03-29T03:04:12.343Z,46.2
2023-03-29T03:05:13.418Z,46.3
2023-03-29T03:06:14.433Z,46.4
2023-03-29T03:07:15.479Z,46.5
2023-03-29T03:08:16.458Z,46.7
2023-03-29T03:09:17.257Z,46.9
2023-03-29T03:10:18.302Z,46.9
2023-03-29T03:11:19.338Z,46.9
2023-03-29T03:12:20.354Z,46.8
2023-03-29T03:13:21.372Z,46.8
2023-03-29T03:14:22.302Z,46.7
2023-03-29T03:15:23.383Z,46.7
2023-03-29T03:16:24.864Z,46.7
2023-03-29T03:17:26.572Z,46.6
2023-03-29T03:18:27.245Z,46.5
2023-03-29T03:19:28.274Z,46.4
2023-03-29T03:20:29.475Z,46.5
2023-03-29T03:21:30.451Z,46.6
2023-03-29T03:22:31.395Z,46.5
2023-03-29T03:23:32.294Z,46.5
2023-03-29T03:24:33.327Z,46.3
2023-03-29T03:25:34.290Z,46.2
2023-03-29T03:26:35.331Z,46
2023-03-29T03:27:36.357Z,46.1
2023-03-29T03:28:37.312Z,45.9
2023-03-29T03:29:38.315Z,45.8
2023-03-29T03:30:39.333Z,45.9
2023-03-29T03:31:40.380Z,46
2023-03-29T03:32:41.472Z,45.8
2023-03-29T03:33:42.597Z,45.9
2023-03-29T03:34:43.353Z,46
2023-03-29T03:35:44.401Z,46.1
2023-03-29T03:36:45.430Z,46.3
2023-03-29T03:37:46.351Z,46.7
2023-03-29T03:38:47.244Z,47.1
2023-03-29T03:39:48.392Z,47.3
2023-03-29T03:40:49.331Z,47.5
2023-03-29T03:41:50.291Z,47.5
2023-03-29T03:42:51.258Z,47.4
2023-03-29T03:43:52.310Z,47.3
2023-03-29T03:44:53.269Z,47.1
2023-03-29T03:45:54.476Z,46.9
2023-03-29T03:46:55.390Z,46.6
2023-03-29T03:47:56.353Z,46.5
2023-03-29T03:48:57.294Z,46.4
2023-03-29T03:49:58.333Z,46.4
2023-03-29T03:50:59.692Z,46.4
2023-03-29T03:52:00.302Z,46.5
2023-03-29T03:53:01.272Z,46.5
2023-03-29T03:54:02.373Z,46.4
2023-03-29T03:55:03.537Z,46.5
2023-03-29T03:56:04.230Z,46.5
2023-03-29T03:57:05.407Z,46.4
2023-03-29T03:58:06.434Z,46.4
2023-03-29T03:59:07.449Z,46.2
2023-03-29T04:00:08.439Z,46.2
2023-03-29T04:01:09.396Z,46.1
2023-03-29T04:02:10.434Z,46.1
2023-03-29T04:03:11.547Z,45.9
2023-03-29T04:04:12.322Z,45.6
2023-03-29T04:05:13.288Z,45.4
2023-03-29T04:06:14.361Z,45.3
2023-03-29T04:07:15.317Z,45.3
2023-03-29T04:08:16.349Z,45.4
2023-03-29T04:09:17.320Z,45.4
2023-03-29T04:10:18.329Z,45.8
2023-03-29T04:11:19.358Z,45.9
2023-03-29T04:12:20.352Z,46
2023-03-29T04:13:21.444Z,46.1
2023-03-29T04:14:22.350Z,46.3
2023-03-29T04:15:23.309Z,46
2023-03-29T04:16:24.334Z,46.5
2023-03-29T04:17:25.438Z,46.6
2023-03-29T04:18:26.371Z,46.8
2023-03-29T04:19:27.390Z,46.9
2023-03-29T04:20:28.308Z,47.1
2023-03-29T04:21:29.263Z,47.1
2023-03-29T04:22:30.308Z,47.1
2023-03-29T04:23:31.328Z,47
2023-03-29T04:24:32.297Z,46.8
2023-03-29T04:25:33.330Z,46.9
2023-03-29T04:26:34.273Z,46.9
2023-03-29T04:27:35.470Z,47
2023-03-29T04:28:36.328Z,47
2023-03-29T04:29:37.353Z,47.1
2023-03-29T04:30:38.535Z,47
2023-03-29T04:31:39.506Z,47
2023-03-29T04:32:40.398Z,46.7
2023-03-29T04:33:41.306Z,46.6
2023-03-29T04:34:42.278Z,46.5
2023-03-29T04:35:43.374Z,46.5
2023-03-29T04:36:44.409Z,46.5
2023-03-29T04:37:45.455Z,46.4
2023-03-29T04:38:47.852Z,46.4
2023-03-29T04:39:47.302Z,46.4
2023-03-29T04:40:48.315Z,46.3
2023-03-29T04:41:49.315Z,46.4
2023-03-29T04:42:50.356Z,46.6
2023-03-29T04:43:51.329Z,46.6
2023-03-29T04:44:52.435Z,46.4
2023-03-29T04:45:53.432Z,46.4
2023-03-29T04:46:54.481Z,46.5
2023-03-29T04:47:55.405Z,46.8
2023-03-29T04:48:56.357Z,47.1
2023-03-29T04:49:57.475Z,46.6
2023-03-29T04:50:58.347Z,47.2
2023-03-29T04:51:59.463Z,47.3
2023-03-29T04:53:00.433Z,47.3
2023-03-29T04:54:01.223Z,47.3
2023-03-29T04:55:02.461Z,47.4
2023-03-29T04:56:03.497Z,47.4
2023-03-29T04:57:04.366Z,47.6
2023-03-29T04:58:05.337Z,47.8
2023-03-29T04:59:06.382Z,47.8
2023-03-29T05:00:07.486Z,48.1
2023-03-29T05:01:08.417Z,48.1
2023-03-29T05:02:09.396Z,48
2023-03-29T05:03:10.411Z,47.8
2023-03-29T05:04:12.713Z,47.9
2023-03-29T05:05:12.386Z,48
2023-03-29T05:06:13.387Z,48.1
2023-03-29T05:07:14.338Z,48.1
2023-03-29T05:08:15.499Z,48.4
2023-03-29T05:09:16.500Z,48.6
2023-03-29T05:10:17.530Z,48.6
2023-03-29T05:11:18.514Z,48.4
2023-03-29T05:12:19.535Z,48.1
2023-03-29T05:13:20.503Z,47.7
2023-03-29T05:14:21.398Z,47.7
2023-03-29T05:15:22.404Z,48
2023-03-29T05:16:23.623Z,48.2
2023-03-29T05:17:24.413Z,48.4
2023-03-29T05:18:25.355Z,48.4
2023-03-29T05:19:26.504Z,48.6
2023-03-29T05:20:27.596Z,48.6
2023-03-29T05:21:28.390Z,48.6
2023-03-29T05:22:29.356Z,48.6
2023-03-29T05:23:30.337Z,48.6
2023-03-29T05:24:31.538Z,48.5
2023-03-29T05:25:32.537Z,48.4
2023-03-29T05:26:33.527Z,48.3
2023-03-29T05:27:34.378Z,48.2
2023-03-29T05:28:35.416Z,48.3
2023-03-29T05:29:36.564Z,48.3
2023-03-29T05:30:37.506Z,48.5
2023-03-29T05:31:38.668Z,48.7
2023-03-29T05:32:39.457Z,48.4
2023-03-29T05:33:40.415Z,48.6
2023-03-29T05:34:41.382Z,48.6
2023-03-29T05:35:42.371Z,48.6
2023-03-29T05:36:43.517Z,48.7
2023-03-29T05:37:44.546Z,48.7
2023-03-29T05:38:45.533Z,48.7
2023-03-29T05:39:46.443Z,48.6
2023-03-29T05:40:47.343Z,48.5
2023-03-29T05:41:48.591Z,48.3
2023-03-29T05:42:49.294Z,48
2023-03-29T05:43:50.573Z,48
2023-03-29T05:44:53.406Z,47.6
2023-03-29T05:45:52.436Z,47.5
2023-03-29T05:46:53.330Z,47.6
2023-03-29T05:47:54.411Z,47.6
2023-03-29T05:48:55.425Z,47.8
2023-03-29T05:49:56.334Z,47.8
2023-03-29T05:50:57.423Z,47.9
2023-03-29T05:51:58.419Z,47.8
2023-03-29T05:52:59.317Z,47.7
2023-03-29T05:54:00.512Z,47.7
2023-03-29T05:55:01.492Z,47.6
2023-03-29T05:56:02.354Z,47.4
2023-03-29T05:57:03.418Z,47.2
2023-03-29T05:58:04.376Z,47
2023-03-29T05:59:05.413Z,47.1
2023-03-29T06:00:06.422Z,46.8
2023-03-29T06:01:07.393Z,47
2023-03-29T06:02:08.413Z,47
2023-03-29T06:03:17.829Z,46.8
2023-03-29T06:04:10.405Z,46.6
2023-03-29T06:05:11.397Z,45.9
2023-03-29T06:06:12.335Z,46.1
2023-03-29T06:07:13.453Z,46.2
2023-03-29T06:08:14.409Z,45.9
2023-03-29T06:09:15.416Z,45.4
2023-03-29T06:10:16.425Z,45.4
2023-03-29T06:11:17.474Z,45.4
2023-03-29T06:12:18.574Z,44.9
2023-03-29T06:13:19.420Z,44.5
2023-03-29T06:14:20.480Z,44.5
2023-03-29T06:15:21.472Z,44.7
2023-03-29T06:16:22.418Z,44.9
2023-03-29T06:17:23.451Z,44.4
2023-03-29T06:18:24.435Z,44.1
2023-03-29T06:19:25.380Z,43.5
2023-03-29T06:20:26.405Z,43.8
2023-03-29T06:21:27.413Z,44
2023-03-29T06:22:28.374Z,41.9
2023-03-29T06:23:29.417Z,41
2023-03-29T06:24:30.413Z,40.9
2023-03-29T06:25:31.405Z,40.8
2023-03-29T06:26:32.414Z,40.6
2023-03-29T06:27:33.419Z,40.4
2023-03-29T06:28:34.396Z,39.8
2023-03-29T06:29:35.363Z,39.6
2023-03-29T06:30:36.488Z,39.4
2023-03-29T06:31:37.557Z,39
2023-03-29T06:32:38.445Z,39.2
2023-03-29T06:33:39.454Z,39.5
2023-03-29T06:34:40.431Z,39.7
2023-03-29T06:35:41.337Z,39
2023-03-29T06:36:42.558Z,39.3
2023-03-29T06:37:43.416Z,38.4
2023-03-29T06:38:44.455Z,37.9
2023-03-29T06:39:45.396Z,37.8
2023-03-29T06:40:46.396Z,38.2
2023-03-29T06:41:47.518Z,38.2
2023-03-29T06:42:48.364Z,38.3
2023-03-29T06:43:49.397Z,38
2023-03-29T06:44:50.378Z,38.3
2023-03-29T06:45:51.346Z,38
2023-03-29T06:46:52.510Z,37.9
2023-03-29T06:47:53.614Z,37.9
2023-03-29T06:48:54.722Z,37.6
2023-03-29T06:49:55.431Z,37.9
2023-03-29T06:50:56.444Z,38.1
2023-03-29T06:51:57.458Z,38.2
2023-03-29T06:52:58.427Z,38.6
2023-03-29T06:53:59.577Z,38.7
2023-03-29T06:55:00.362Z,38.5
2023-03-29T06:56:01.444Z,38.6
2023-03-29T06:57:02.755Z,38.1
2023-03-29T06:58:03.715Z,37.5
2023-03-29T06:59:04.647Z,36.9
2023-03-29T07:00:05.478Z,36.7
2023-03-29T07:01:06.672Z,36.6
2023-03-29T07:02:07.397Z,36.7
2023-03-29T07:03:08.462Z,36.3
2023-03-29T07:04:09.903Z,36.2
2023-03-29T07:05:11.506Z,36
2023-03-29T07:06:12.424Z,35.7
2023-03-29T07:07:13.419Z,35.7
2023-03-29T07:08:14.418Z,35.3
2023-03-29T07:09:16.637Z,34.4
2023-03-29T07:10:16.436Z,33.6
2023-03-29T07:11:17.466Z,33.9
2023-03-29T07:12:18.435Z,34
2023-03-29T07:13:19.446Z,33.2
2023-03-29T07:14:20.458Z,33.2
2023-03-29T07:15:21.435Z,33.5
2023-03-29T07:16:22.430Z,33.6
2023-03-29T07:17:23.479Z,33.4
2023-03-29T07:18:24.464Z,32.7
2023-03-29T07:19:25.443Z,32.7
2023-03-29T07:20:26.435Z,33.1
2023-03-29T07:21:27.485Z,32.5
2023-03-29T07:22:28.380Z,32.3
2023-03-29T07:23:29.406Z,32.7
2023-03-29T07:24:30.418Z,32.9
2023-03-29T07:25:31.482Z,33.2
2023-03-29T07:26:32.515Z,33.1
2023-03-29T07:27:33.653Z,33.4
2023-03-29T07:28:34.452Z,33.6
2023-03-29T07:29:35.613Z,33.8
2023-03-29T07:30:36.435Z,34.1
2023-03-29T07:31:37.403Z,34.4
2023-03-29T07:32:38.431Z,34.7
2023-03-29T07:33:40.003Z,34
2023-03-29T07:34:40.467Z,33
2023-03-29T07:35:41.498Z,32.4
2023-03-29T07:36:42.494Z,32.5
2023-03-29T07:37:43.403Z,32
2023-03-29T07:38:44.410Z,32.2
2023-03-29T07:39:45.613Z,32.3
2023-03-29T07:40:46.694Z,32.5
2023-03-29T07:41:47.571Z,32.8
2023-03-29T07:42:48.608Z,32.6
2023-03-29T07:43:49.595Z,32.3
2023-03-29T07:44:50.508Z,32.3
2023-03-29T07:45:51.505Z,32.9
2023-03-29T07:46:52.448Z,33
2023-03-29T07:47:53.380Z,33
2023-03-29T07:48:54.393Z,32.6
2023-03-29T07:49:55.386Z,32.5
2023-03-29T07:50:56.438Z,32
2023-03-29T07:51:57.551Z,31.6
2023-03-29T07:52:58.432Z,31.7
2023-03-29T07:53:59.472Z,32.2
2023-03-29T07:55:00.438Z,32.3
2023-03-29T07:56:01.474Z,32.5
2023-03-29T07:57:02.517Z,32
2023-03-29T07:58:03.493Z,31.1
2023-03-29T07:59:04.477Z,31.1
2023-03-29T08:00:05.503Z,31.1
2023-03-29T08:01:06.673Z,31.3
2023-03-29T08:02:07.523Z,31.4
2023-03-29T08:03:08.659Z,31.5
2023-03-29T08:04:09.746Z,31.5
2023-03-29T08:05:10.729Z,31.5
2023-03-29T08:06:11.450Z,31.6
2023-03-29T08:07:12.543Z,31.7
2023-03-29T08:08:13.473Z,31.5
2023-03-29T08:09:14.451Z,30.9
2023-03-29T08:10:15.449Z,30.7
2023-03-29T08:11:16.722Z,31.2
2023-03-29T08:12:17.476Z,30.6
2023-03-29T08:13:18.535Z,31.1
2023-03-29T08:14:19.474Z,31.4
2023-03-29T08:15:20.456Z,32
2023-03-29T08:16:21.503Z,31.2
2023-03-29T08:17:22.453Z,30.7
2023-03-29T08:18:23.492Z,31.4
2023-03-29T08:19:24.477Z,31.3
2023-03-29T08:20:25.477Z,30
2023-03-29T08:21:26.436Z,30.2
2023-03-29T08:22:27.495Z,30
2023-03-29T08:23:28.561Z,29.6
2023-03-29T08:24:29.483Z,29.9
2023-03-29T08:25:30.459Z,29.8
2023-03-29T08:26:31.497Z,29.5
2023-03-29T08:27:32.546Z,29.6
2023-03-29T08:28:33.837Z,28.9
2023-03-29T08:29:34.498Z,29.4
2023-03-29T08:30:35.599Z,29.1
2023-03-29T08:31:36.534Z,29.7
2023-03-29T08:32:37.554Z,29.7
2023-03-29T08:33:38.465Z,29.4
2023-03-29T08:34:40.027Z,29.5
2023-03-29T08:35:41.473Z,28.9
2023-03-29T08:36:42.462Z,28.7
2023-03-29T08:37:43.503Z,27.8
2023-03-29T08:38:44.516Z,27.7
2023-03-29T08:39:45.449Z,27.7
2023-03-29T08:40:46.458Z,27.5
2023-03-29T08:41:47.396Z,27.3
2023-03-29T08:42:48.436Z,27.8
2023-03-29T08:43:49.478Z,28.1
2023-03-29T08:44:50.495Z,28.2
2023-03-29T08:45:51.515Z,28.5
2023-03-29T08:46:52.600Z,28.6
2023-03-29T08:47:53.648Z,28
2023-03-29T08:48:54.510Z,28
2023-03-29T08:49:55.577Z,27.8
2023-03-29T08:50:56.475Z,27.7
2023-03-29T08:51:57.538Z,27.4
2023-03-29T08:52:58.497Z,28.7
2023-03-29T08:53:59.443Z,28.4
2023-03-29T08:55:00.559Z,27.6
2023-03-29T08:56:01.542Z,27.4
2023-03-29T08:57:02.580Z,27.8
2023-03-29T08:58:03.536Z,27.8
2023-03-29T08:59:04.418Z,27.8
2023-03-29T09:00:05.541Z,28.6
2023-03-29T09:01:06.443Z,28.2
2023-03-29T09:02:07.441Z,28.2
2023-03-29T09:03:08.638Z,28.7
2023-03-29T09:04:09.764Z,28.4
2023-03-29T09:05:10.475Z,27.6
2023-03-29T09:06:11.475Z,26.9
2023-03-29T09:07:12.572Z,27.3
2023-03-29T09:08:13.574Z,27.5
2023-03-29T09:09:14.485Z,27.4
2023-03-29T09:10:15.463Z,27.2
2023-03-29T09:11:16.486Z,27.3
2023-03-29T09:12:17.487Z,27.4
2023-03-29T09:13:18.570Z,27.4
2023-03-29T09:14:19.576Z,27.8
2023-03-29T09:15:20.495Z,28.1
2023-03-29T09:16:21.589Z,28.7
2023-03-29T09:17:22.478Z,29.3
2023-03-29T09:18:23.703Z,29.4
2023-03-29T09:19:24.595Z,29.2
2023-03-29T09:20:25.614Z,29.7
2023-03-29T09:21:26.543Z,29.5
2023-03-29T09:22:27.478Z,29.5
2023-03-29T09:23:28.453Z,29.6
2023-03-29T09:24:29.454Z,29.5
2023-03-29T09:25:31.877Z,28.4
2023-03-29T09:26:31.614Z,28.3
2023-03-29T09:27:32.551Z,28.5
2023-03-29T09:28:33.493Z,28.4
2023-03-29T09:29:34.632Z,27.8
2023-03-29T09:30:35.553Z,28.5
2023-03-29T09:31:36.598Z,27.9
2023-03-29T09:32:37.532Z,27.7
2023-03-29T09:33:38.575Z,27.6
2023-03-29T09:34:39.612Z,27.7
2023-03-29T09:35:40.575Z,27.7
2023-03-29T09:36:41.482Z,27.6
2023-03-29T09:37:42.492Z,27.7
2023-03-29T09:38:43.446Z,27.4
2023-03-29T09:39:44.456Z,27.7
2023-03-29T09:40:45.472Z,27.8
2023-03-29T09:41:46.572Z,27.8
2023-03-29T09:42:47.561Z,27.9
2023-03-29T09:43:48.631Z,27.7
2023-03-29T09:44:49.632Z,27.8
2023-03-29T09:45:53.507Z,27.9
2023-03-29T09:46:54.712Z,28.1
2023-03-29T09:47:55.564Z,27.9
2023-03-29T09:48:56.655Z,27.7
2023-03-29T09:49:57.539Z,27.6
2023-03-29T09:50:58.450Z,28
2023-03-29T09:51:59.559Z,28
2023-03-29T09:53:00.482Z,28.5
2023-03-29T09:54:01.511Z,28.1
2023-03-29T09:55:02.676Z,28.1
2023-03-29T09:56:03.633Z,27.8
2023-03-29T09:57:04.573Z,27.5
2023-03-29T09:58:05.633Z,27.3
2023-03-29T09:59:06.481Z,27.2
2023-03-29T10:00:07.558Z,27.3
2023-03-29T10:01:08.602Z,27.8
2023-03-29T10:02:09.563Z,27.8
2023-03-29T10:03:10.941Z,28
2023-03-29T10:04:11.715Z,27.9
2023-03-29T10:05:12.716Z,27.8
2023-03-29T10:06:13.471Z,27.8
2023-03-29T10:07:14.515Z,27.3
2023-03-29T10:08:17.132Z,27.4
2023-03-29T10:09:16.536Z,27.1
2023-03-29T10:10:17.577Z,27.3
2023-03-29T10:11:18.503Z,27.4
2023-03-29T10:12:19.457Z,28.1
2023-03-29T10:13:20.563Z,28
2023-03-29T10:14:21.542Z,27.7
2023-03-29T10:15:29.531Z,27.3
2023-03-29T10:16:23.558Z,27.2
2023-03-29T10:17:24.648Z,27.1
2023-03-29T10:18:25.816Z,26.8
2023-03-29T10:19:26.561Z,26.6
2023-03-29T10:20:27.531Z,27.4
2023-03-29T10:21:28.494Z,27.3
2023-03-29T10:22:29.512Z,26.8
2023-03-29T10:23:30.547Z,26.8
2023-03-29T10:24:31.550Z,26.9
2023-03-29T10:25:32.566Z,26.9
2023-03-29T10:26:33.695Z,26.9
2023-03-29T10:27:34.433Z,26.9
2023-03-29T10:28:35.501Z,27
2023-03-29T10:29:36.538Z,26.3
2023-03-29T10:30:37.521Z,26
2023-03-29T10:31:38.726Z,25.9
2023-03-29T10:32:39.693Z,26.1
2023-03-29T10:33:40.605Z,25.8
2023-03-29T10:34:41.579Z,26.6
2023-03-29T10:35:42.527Z,26.3
2023-03-29T10:36:43.528Z,26.3
2023-03-29T10:37:44.451Z,26.8
2023-03-29T10:38:45.482Z,26.3
2023-03-29T10:39:46.545Z,26.2
2023-03-29T10:40:47.605Z,26.5
2023-03-29T10:41:48.593Z,26.5
2023-03-29T10:42:49.638Z,25.9
2023-03-29T10:43:50.637Z,26
2023-03-29T10:44:51.494Z,26
2023-03-29T10:45:52.685Z,25.9
2023-03-29T10:46:53.518Z,25.7
2023-03-29T10:47:54.549Z,25.8
2023-03-29T10:48:55.550Z,26
2023-03-29T10:49:57.221Z,25.8
2023-03-29T10:50:57.561Z,25.7
2023-03-29T10:51:58.527Z,25.4
2023-03-29T10:52:59.578Z,24.9
2023-03-29T10:54:00.539Z,25.5
2023-03-29T10:55:01.546Z,26.4
2023-03-29T10:56:02.694Z,26.5
2023-03-29T10:57:03.561Z,25.9
2023-03-29T10:58:04.593Z,25.8
2023-03-29T10:59:05.495Z,25.9
2023-03-29T11:00:06.656Z,25.7
2023-03-29T11:01:07.645Z,25.9
2023-03-29T11:02:08.560Z,26
2023-03-29T11:03:09.766Z,26
2023-03-29T11:04:10.683Z,25.7
2023-03-29T11:05:11.550Z,25.3
2023-03-29T11:06:12.612Z,25.3
2023-03-29T11:07:13.518Z,25.5
2023-03-29T11:08:14.640Z,25.8
2023-03-29T11:09:15.714Z,25.8
2023-03-29T11:10:16.603Z,25.6
2023-03-29T11:11:17.454Z,26
2023-03-29T11:12:18.680Z,26
2023-03-29T11:13:19.532Z,25.9
2023-03-29T11:14:20.548Z,26.5
2023-03-29T11:15:21.532Z,26.2
2023-03-29T11:16:22.998Z,25.7
2023-03-29T11:17:23.503Z,26.4
2023-03-29T11:18:24.514Z,26.5
2023-03-29T11:19:25.641Z,26.7
2023-03-29T11:20:26.726Z,27
2023-03-29T11:21:27.604Z,26.8
2023-03-29T11:22:28.519Z,26.8
2023-03-29T11:23:29.495Z,26.5
2023-03-29T11:24:30.493Z,26.5
2023-03-29T11:25:31.481Z,26.5
2023-03-29T11:26:32.619Z,26.3
2023-03-29T11:27:33.713Z,26.4
2023-03-29T11:28:34.461Z,26.1
2023-03-29T11:29:35.556Z,25.7
2023-03-29T11:30:36.553Z,25.9
2023-03-29T11:31:38.945Z,26.2
2023-03-29T11:32:38.666Z,26.4
2023-03-29T11:33:39.732Z,25.1
2023-03-29T11:34:40.636Z,25.8
2023-03-29T11:35:41.766Z,26.7
2023-03-29T11:36:42.659Z,25.3
2023-03-29T11:37:43.577Z,25.4
2023-03-29T11:38:45.346Z,24.9
2023-03-29T11:39:45.556Z,24.8
2023-03-29T11:40:46.573Z,24.7
2023-03-29T11:41:47.529Z,25.2
2023-03-29T11:42:48.481Z,24.9
2023-03-29T11:43:49.681Z,25
2023-03-29T11:44:51.664Z,24.5
2023-03-29T11:45:51.692Z,24.3
2023-03-29T11:46:52.611Z,24.3
2023-03-29T11:47:53.591Z,24
2023-03-29T11:48:54.579Z,23.8
2023-03-29T11:49:55.654Z,23.1
2023-03-29T11:50:56.686Z,22.3
2023-03-29T11:51:57.616Z,21.6
2023-03-29T11:52:58.572Z,21.1
2023-03-29T11:53:59.555Z,21
2023-03-29T11:55:01.499Z,21.6
2023-03-29T11:56:02.590Z,22.2
2023-03-29T11:57:03.779Z,22.3
2023-03-29T11:58:04.636Z,21.9
2023-03-29T11:59:05.693Z,21.9
2023-03-29T12:00:06.664Z,22.9
2023-03-29T12:01:07.631Z,22.6
2023-03-29T12:02:08.647Z,22.4
2023-03-29T12:03:09.683Z,22.4
2023-03-29T12:04:10.854Z,23.1
2023-03-29T12:05:11.533Z,22.8
2023-03-29T12:06:12.572Z,22.3
2023-03-29T12:07:13.771Z,22.4
2023-03-29T12:08:14.574Z,22.4
2023-03-29T12:09:16.769Z,22.9
2023-03-29T12:10:16.560Z,22.6
2023-03-29T12:11:17.552Z,22.8
2023-03-29T12:12:18.619Z,22.3
2023-03-29T12:13:19.532Z,22.6
2023-03-29T12:14:20.753Z,23
2023-03-29T12:15:21.589Z,22.6
2023-03-29T12:16:22.569Z,22.5
2023-03-29T12:17:23.563Z,21.8
2023-03-29T12:18:24.639Z,21.2
2023-03-29T12:19:25.718Z,21.6
2023-03-29T12:20:26.734Z,21.8
2023-03-29T12:21:27.747Z,21.9
2023-03-29T12:22:28.580Z,21.6
2023-03-29T12:23:29.556Z,21.7
2023-03-29T12:24:30.669Z,21.4
2023-03-29T12:25:31.772Z,21
2023-03-29T12:26:32.839Z,21.6
2023-03-29T12:27:33.717Z,21.7
2023-03-29T12:28:34.654Z,21.6
2023-03-29T12:29:35.747Z,21.7
2023-03-29T12:30:36.658Z,21.8
2023-03-29T12:31:37.719Z,21.9
2023-03-29T12:32:38.780Z,22
2023-03-29T12:33:39.535Z,23.1
2023-03-29T12:34:40.766Z,22.4
2023-03-29T12:35:41.582Z,22.6
2023-03-29T12:36:42.641Z,21.8
2023-03-29T12:37:43.715Z,21.5
2023-03-29T12:38:44.653Z,22.2
2023-03-29T12:39:45.690Z,21.9
2023-03-29T12:40:46.675Z,21.9
2023-03-29T12:41:47.711Z,22.9
2023-03-29T12:42:48.639Z,21.9
2023-03-29T12:43:49.814Z,21.7
2023-03-29T12:44:50.678Z,21.9
2023-03-29T12:45:51.779Z,22.1
2023-03-29T12:46:52.741Z,21.5
2023-03-29T12:47:53.805Z,21.3
2023-03-29T12:48:54.718Z,21.7
2023-03-29T12:49:55.721Z,21.8
2023-03-29T12:50:56.697Z,21.3
2023-03-29T12:51:57.704Z,20.6
2023-03-29T12:52:58.602Z,20.6
2023-03-29T12:53:59.599Z,20.7
2023-03-29T12:55:00.555Z,20.2
2023-03-29T12:56:01.897Z,19.8
2023-03-29T12:57:02.660Z,20.1
2023-03-29T12:58:03.838Z,20.2
2023-03-29T12:59:04.745Z,20.5
2023-03-29T13:00:05.583Z,21.1
2023-03-29T13:01:06.714Z,21
2023-03-29T13:02:07.768Z,20.8
2023-03-29T13:03:08.640Z,20.9
2023-03-29T13:04:09.677Z,20.9
2023-03-29T13:05:10.720Z,21
2023-03-29T13:06:11.768Z,20.8
2023-03-29T13:07:15.673Z,20.4
2023-03-29T13:08:16.775Z,21
2023-03-29T13:09:17.738Z,20.7
2023-03-29T13:10:18.753Z,20
2023-03-29T13:11:19.755Z,19.5
2023-03-29T13:12:20.615Z,19.4
2023-03-29T13:13:21.679Z,19.5
2023-03-29T13:14:22.817Z,19.8
2023-03-29T13:15:23.756Z,19.6
2023-03-29T13:16:24.700Z,19.4
2023-03-29T13:17:25.847Z,19.9
2023-03-29T13:18:26.674Z,20.8
2023-03-29T13:19:27.641Z,19.8
2023-03-29T13:20:28.616Z,19.8
2023-03-29T13:21:29.599Z,19.5
2023-03-29T13:22:30.749Z,19.3
2023-03-29T13:23:31.709Z,19.6
2023-03-29T13:24:32.695Z,20.4
2023-03-29T13:25:33.761Z,21
2023-03-29T13:26:34.675Z,20.2
2023-03-29T13:27:35.541Z,20.8
2023-03-29T13:28:36.565Z,20
2023-03-29T13:29:37.595Z,20.7
2023-03-29T13:30:38.699Z,20.9
2023-03-29T13:31:39.914Z,21.5
2023-03-29T13:32:40.725Z,20.9
2023-03-29T13:33:41.736Z,21.1
2023-03-29T13:34:42.776Z,20.8
2023-03-29T13:35:43.619Z,20.4
2023-03-29T13:36:44.653Z,20
2023-03-29T13:37:45.708Z,20